Time;durP1;ratioP1;P1;durP2;ratioP2;P2;SDS_P1;SDS_P2;PMS_P1;PMS_P2;Temp;Humidity;BMP_temperature;BMP_pressure;BME280_temperature;BME280_humidity;BME280_pressure;Samples;Min_cycle;Max_cycle;Signal;HPM_P1;HPM_P2
2023/09/21 00:01:33;;;;;;;3.97;1.50;;;;;;;;;;5046212;28;20437;-57
2023/09/21 00:04:00;;;;;;;4.05;1.52;;;;;;;;;;5045379;28;20432;-57
2023/09/21 00:06:26;;;;;;;5.20;1.98;;;;;;;;;;5047105;28;20392;-57
2023/09/21 00:08:52;;;;;;;3.87;1.50;;;;;;;;;;5046439;28;20413;-57
2023/09/21 00:11:18;;;;;;;3.35;1.45;;;;;;;;;;5044432;28;20456;-57
2023/09/21 00:13:43;;;;;;;4.80;1.42;;;;;;;;;;5047306;28;21410;-57
2023/09/21 00:16:09;;;;;;;3.80;1.60;;;;;;;;;;5046351;28;20412;-57
2023/09/21 00:18:34;;;;;;;2.83;1.60;;;;;;;;;;5045196;28;20424;-57
2023/09/21 00:21:01;;;;;;;4.20;1.70;;;;;;;;;;5046430;28;20437;-57
2023/09/21 00:23:26;;;;;;;3.95;1.60;;;;;;;;;;5047276;28;20385;-57
2023/09/21 00:25:57;;;;;;;3.63;1.50;;;;;;;;;;5048997;28;21016;-57
2023/09/21 00:28:22;;;;;;;4.07;1.60;;;;;;;;;;5045329;28;20468;-57
2023/09/21 00:30:49;;;;;;;4.43;1.70;;;;;;;;;;5045968;28;20741;-57
2023/09/21 00:33:14;;;;;;;3.10;1.60;;;;;;;;;;5046332;28;20768;-57
2023/09/21 00:35:40;;;;;;;4.97;1.50;;;;;;;;;;5046254;28;20397;-57
2023/09/21 00:38:10;;;;;;;3.77;1.60;;;;;;;;;;5044242;28;20408;-57
2023/09/21 00:40:38;;;;;;;4.30;1.77;;;;;;;;;;5046454;28;20520;-58
2023/09/21 00:43:05;;;;;;;3.08;1.52;;;;;;;;;;5046513;28;20405;-57
2023/09/21 00:45:31;;;;;;;4.93;1.80;;;;;;;;;;5044021;28;20390;-57
2023/09/21 00:47:56;;;;;;;4.13;1.60;;;;;;;;;;5046706;28;20428;-57
2023/09/21 00:50:22;;;;;;;4.20;1.70;;;;;;;;;;5046987;28;20940;-57
2023/09/21 00:52:48;;;;;;;3.33;1.50;;;;;;;;;;5047500;28;20413;-57
2023/09/21 00:55:14;;;;;;;3.73;1.70;;;;;;;;;;5049079;28;20397;-57
2023/09/21 00:57:40;;;;;;;4.13;1.63;;;;;;;;;;5050400;28;20855;-57
2023/09/21 01:00:13;;;;;;;4.83;1.70;;;;;;;;;;5049271;28;20417;-57
2023/09/21 01:02:39;;;;;;;4.43;1.88;;;;;;;;;;5048079;28;20409;-57
2023/09/21 01:05:05;;;;;;;3.45;1.50;;;;;;;;;;5048631;28;20416;-57
2023/09/21 01:07:31;;;;;;;3.95;1.67;;;;;;;;;;5050586;28;20405;-57
2023/09/21 01:09:56;;;;;;;5.33;1.70;;;;;;;;;;5048563;28;20409;-57
2023/09/21 01:12:22;;;;;;;5.53;1.43;;;;;;;;;;5048405;28;20386;-57
2023/09/21 01:15:05;;;;;;;3.20;1.45;;;;;;;;;;5050326;28;20402;-57
2023/09/21 01:17:30;;;;;;;3.88;1.52;;;;;;;;;;5049954;28;20400;-57
2023/09/21 01:19:56;;;;;;;4.63;1.70;;;;;;;;;;5047400;28;20417;-57
2023/09/21 01:22:22;;;;;;;4.70;1.50;;;;;;;;;;5049447;28;20409;-57
2023/09/21 01:24:47;;;;;;;4.47;1.63;;;;;;;;;;5049733;28;20397;-57
2023/09/21 01:27:13;;;;;;;5.27;1.70;;;;;;;;;;5047698;28;20432;-57
2023/09/21 01:29:38;;;;;;;4.38;1.50;;;;;;;;;;5048754;28;20480;-57
2023/09/21 01:32:03;;;;;;;4.93;1.57;;;;;;;;;;5049981;28;20413;-57
2023/09/21 01:34:29;;;;;;;3.63;1.70;;;;;;;;;;5049458;28;20458;-57
2023/09/21 01:36:55;;;;;;;4.83;1.47;;;;;;;;;;5047941;28;20494;-57
2023/09/21 01:39:21;;;;;;;5.40;1.58;;;;;;;;;;5049518;28;20718;-57
2023/09/21 01:41:47;;;;;;;3.92;1.50;;;;;;;;;;5048954;28;20418;-57
2023/09/21 01:44:12;;;;;;;3.93;1.50;;;;;;;;;;5047038;28;20405;-57
2023/09/21 01:46:37;;;;;;;3.07;1.60;;;;;;;;;;5049568;28;20760;-57
2023/09/21 01:49:03;;;;;;;4.97;1.47;;;;;;;;;;5048642;28;20410;-56
2023/09/21 01:51:28;;;;;;;4.15;1.45;;;;;;;;;;5048897;28;20402;-57
2023/09/21 01:53:54;;;;;;;4.23;1.87;;;;;;;;;;5048135;28;20485;-57
2023/09/21 01:56:21;;;;;;;3.47;1.60;;;;;;;;;;5048495;28;21841;-57
2023/09/21 01:58:47;;;;;;;3.63;1.60;;;;;;;;;;5049450;28;20451;-57
2023/09/21 02:01:16;;;;;;;3.90;1.40;;;;;;;;;;5045799;28;20431;-57
2023/09/21 02:03:42;;;;;;;3.35;1.40;;;;;;;;;;5049338;28;20805;-57
2023/09/21 02:06:07;;;;;;;2.95;1.50;;;;;;;;;;5049218;28;20471;-57
2023/09/21 02:08:33;;;;;;;4.30;1.40;;;;;;;;;;5047403;28;20458;-57
2023/09/21 02:10:58;;;;;;;4.63;1.47;;;;;;;;;;5048087;28;20419;-57
2023/09/21 02:13:24;;;;;;;2.72;1.50;;;;;;;;;;5048562;28;20401;-57
2023/09/21 02:15:51;;;;;;;4.13;1.40;;;;;;;;;;5048420;28;20397;-58
2023/09/21 02:18:16;;;;;;;3.53;1.45;;;;;;;;;;5046739;28;20410;-57
2023/09/21 02:20:44;;;;;;;4.27;1.53;;;;;;;;;;5048988;28;20396;-57
2023/09/21 02:23:09;;;;;;;3.17;1.40;;;;;;;;;;5048163;28;20397;-57
2023/09/21 02:25:35;;;;;;;4.57;1.50;;;;;;;;;;5046763;28;20467;-57
2023/09/21 02:28:04;;;;;;;4.40;1.60;;;;;;;;;;5048561;28;20452;-57
2023/09/21 02:30:30;;;;;;;4.97;1.52;;;;;;;;;;5048116;28;20405;-57
2023/09/21 02:32:55;;;;;;;4.87;1.60;;;;;;;;;;5046447;28;20401;-57
2023/09/21 02:35:23;;;;;;;3.40;1.57;;;;;;;;;;5047221;28;20429;-57
2023/09/21 02:37:49;;;;;;;3.65;1.70;;;;;;;;;;5044996;28;20892;-57
2023/09/21 02:40:14;;;;;;;3.63;1.30;;;;;;;;;;5025370;28;20439;-57
2023/09/21 02:42:40;;;;;;;3.10;1.47;;;;;;;;;;5029688;28;20411;-57
2023/09/21 02:45:09;;;;;;;4.10;1.70;;;;;;;;;;5025668;28;20405;-57
2023/09/21 02:47:34;;;;;;;3.70;1.38;;;;;;;;;;5026177;28;20919;-57
2023/09/21 02:50:00;;;;;;;3.43;1.50;;;;;;;;;;5027234;28;20482;-57
2023/09/21 02:52:25;;;;;;;3.73;1.70;;;;;;;;;;5022792;28;20419;-57
2023/09/21 02:54:53;;;;;;;3.00;1.30;;;;;;;;;;5018769;28;20416;-57
2023/09/21 02:57:18;;;;;;;3.65;1.48;;;;;;;;;;5018038;28;20403;-57
2023/09/21 02:59:43;;;;;;;5.07;1.53;;;;;;;;;;5022930;28;20437;-57
2023/09/21 03:02:09;;;;;;;3.30;1.40;;;;;;;;;;5025681;28;20420;-57
2023/09/21 03:04:34;;;;;;;5.03;1.88;;;;;;;;;;5025984;28;20439;-57
2023/09/21 03:06:59;;;;;;;3.80;1.50;;;;;;;;;;5027762;28;20455;-57
2023/09/21 03:09:24;;;;;;;2.57;1.50;;;;;;;;;;5025123;28;20435;-57
2023/09/21 03:11:50;;;;;;;3.27;1.50;;;;;;;;;;5025704;28;20428;-57
2023/09/21 03:14:15;;;;;;;2.97;1.50;;;;;;;;;;5025319;28;20434;-57
2023/09/21 03:16:43;;;;;;;3.43;1.30;;;;;;;;;;5019395;28;20826;-57
2023/09/21 03:19:11;;;;;;;4.18;1.50;;;;;;;;;;5017018;28;20409;-57
2023/09/21 03:21:36;;;;;;;4.22;1.85;;;;;;;;;;5017833;28;20407;-57
2023/09/21 03:24:02;;;;;;;4.10;1.60;;;;;;;;;;5026914;28;20405;-58
2023/09/21 03:26:28;;;;;;;3.92;1.60;;;;;;;;;;5024383;28;20732;-57
2023/09/21 03:28:54;;;;;;;4.43;1.50;;;;;;;;;;5025683;28;21301;-57
2023/09/21 03:31:19;;;;;;;4.43;1.70;;;;;;;;;;5027542;28;20418;-57
2023/09/21 03:33:46;;;;;;;5.70;1.70;;;;;;;;;;5024489;28;20412;-57
2023/09/21 03:36:13;;;;;;;4.13;1.60;;;;;;;;;;5024327;28;20413;-57
2023/09/21 03:38:39;;;;;;;3.90;1.50;;;;;;;;;;5020429;28;20450;-57
2023/09/21 03:41:04;;;;;;;4.55;1.60;;;;;;;;;;5019572;28;20478;-57
2023/09/21 03:43:30;;;;;;;2.70;1.40;;;;;;;;;;5016946;28;21167;-57
2023/09/21 03:45:56;;;;;;;3.50;1.45;;;;;;;;;;5023385;28;20525;-57
2023/09/21 03:48:21;;;;;;;3.30;1.50;;;;;;;;;;5027026;28;20398;-57
2023/09/21 03:50:49;;;;;;;4.40;1.37;;;;;;;;;;5025351;28;20451;-57
2023/09/21 03:53:14;;;;;;;4.10;1.40;;;;;;;;;;5024328;28;20402;-58
2023/09/21 03:55:39;;;;;;;4.23;1.60;;;;;;;;;;5025281;28;20410;-57
2023/09/21 03:58:05;;;;;;;4.50;1.80;;;;;;;;;;5026029;28;20405;-57
2023/09/21 04:00:36;;;;;;;5.47;1.50;;;;;;;;;;5020891;28;20490;-57
2023/09/21 04:03:03;;;;;;;3.80;1.70;;;;;;;;;;5015523;28;20403;-58
2023/09/21 04:05:31;;;;;;;3.95;1.80;;;;;;;;;;5018014;28;20934;-57
2023/09/21 04:07:56;;;;;;;2.92;1.58;;;;;;;;;;5020128;28;21281;-57
2023/09/21 04:10:21;;;;;;;3.30;1.40;;;;;;;;;;5023738;28;20399;-57
2023/09/21 04:12:46;;;;;;;3.17;1.48;;;;;;;;;;5025106;28;20402;-57
2023/09/21 04:15:12;;;;;;;3.50;1.40;;;;;;;;;;5029185;28;20456;-57
2023/09/21 04:17:39;;;;;;;3.23;1.43;;;;;;;;;;5024395;28;20489;-57
2023/09/21 04:20:10;;;;;;;3.83;1.48;;;;;;;;;;5024514;28;20963;-57
2023/09/21 04:22:36;;;;;;;3.78;1.50;;;;;;;;;;5026140;28;20907;-57
2023/09/21 04:25:07;;;;;;;4.60;1.43;;;;;;;;;;5014521;28;20802;-57
2023/09/21 04:27:33;;;;;;;2.70;1.40;;;;;;;;;;5017161;28;20483;-57
2023/09/21 04:29:58;;;;;;;4.97;1.43;;;;;;;;;;5020580;28;20406;-57
2023/09/21 04:32:23;;;;;;;4.90;1.83;;;;;;;;;;5024144;28;20418;-57
2023/09/21 04:34:48;;;;;;;3.70;1.37;;;;;;;;;;5024373;28;20484;-57
2023/09/21 04:37:14;;;;;;;3.57;1.53;;;;;;;;;;5024617;28;20446;-57
2023/09/21 04:39:39;;;;;;;4.33;1.60;;;;;;;;;;5025741;28;20411;-57
2023/09/21 04:42:04;;;;;;;5.63;1.97;;;;;;;;;;5023798;28;20431;-57
2023/09/21 04:44:30;;;;;;;3.10;1.47;;;;;;;;;;5024326;28;20407;-57
2023/09/21 04:46:55;;;;;;;3.40;1.60;;;;;;;;;;5019247;28;20449;-57
2023/09/21 04:49:21;;;;;;;4.13;1.55;;;;;;;;;;5015495;28;21195;-57
2023/09/21 04:51:46;;;;;;;3.30;1.60;;;;;;;;;;5016329;28;20488;-57
2023/09/21 04:54:11;;;;;;;3.17;1.70;;;;;;;;;;5024716;28;20408;-57
2023/09/21 04:56:37;;;;;;;4.47;1.80;;;;;;;;;;5024023;28;20417;-57
2023/09/21 04:59:02;;;;;;;6.27;1.73;;;;;;;;;;5023211;28;20484;-57
2023/09/21 05:01:28;;;;;;;3.47;1.67;;;;;;;;;;5024460;28;20419;-57
2023/09/21 05:03:55;;;;;;;5.13;1.70;;;;;;;;;;5026259;28;20897;-57
2023/09/21 05:06:21;;;;;;;5.28;1.83;;;;;;;;;;5023988;28;20397;-57
2023/09/21 05:08:46;;;;;;;2.95;1.67;;;;;;;;;;5019529;28;20477;-57
2023/09/21 05:11:12;;;;;;;7.50;1.87;;;;;;;;;;5018911;28;20496;-57
2023/09/21 05:13:39;;;;;;;5.17;1.60;;;;;;;;;;5016251;28;20410;-57
2023/09/21 05:16:04;;;;;;;4.60;1.70;;;;;;;;;;5021018;28;20411;-57
2023/09/21 05:18:30;;;;;;;5.10;1.50;;;;;;;;;;5024418;28;20395;-57
2023/09/21 05:20:55;;;;;;;4.10;1.70;;;;;;;;;;5024687;28;20434;-57
2023/09/21 05:23:21;;;;;;;4.13;1.63;;;;;;;;;;5023722;28;20933;-57
2023/09/21 05:25:46;;;;;;;3.70;1.50;;;;;;;;;;5024359;28;20457;-57
2023/09/21 05:28:11;;;;;;;4.93;1.50;;;;;;;;;;5024454;28;20397;-57
2023/09/21 05:30:36;;;;;;;4.53;1.63;;;;;;;;;;5020929;28;20771;-57
2023/09/21 05:33:02;;;;;;;3.93;1.50;;;;;;;;;;5016064;28;20427;-57
2023/09/21 05:35:28;;;;;;;2.58;1.40;;;;;;;;;;5017668;28;20980;-57
2023/09/21 05:37:53;;;;;;;2.47;1.43;;;;;;;;;;5020739;28;20512;-57
2023/09/21 05:40:18;;;;;;;3.93;1.50;;;;;;;;;;5026339;28;20407;-57
2023/09/21 05:42:45;;;;;;;5.30;1.70;;;;;;;;;;5028780;28;20419;-57
2023/09/21 05:45:10;;;;;;;4.03;1.65;;;;;;;;;;5029473;28;20431;-57
2023/09/21 05:47:35;;;;;;;4.33;1.60;;;;;;;;;;5033822;28;20528;-57
2023/09/21 05:50:00;;;;;;;4.73;1.60;;;;;;;;;;5027207;28;20747;-59
2023/09/21 05:52:26;;;;;;;4.10;1.50;;;;;;;;;;5030960;28;20402;-57
2023/09/21 05:54:52;;;;;;;3.60;1.50;;;;;;;;;;5018910;28;21416;-57
2023/09/21 05:57:17;;;;;;;5.53;1.70;;;;;;;;;;5017897;28;20410;-57
2023/09/21 05:59:42;;;;;;;4.27;1.30;;;;;;;;;;5020447;28;20403;-57
2023/09/21 06:02:13;;;;;;;4.40;1.47;;;;;;;;;;5026465;28;20425;-57
2023/09/21 06:04:39;;;;;;;4.47;1.50;;;;;;;;;;5027383;28;20470;-56
2023/09/21 06:07:04;;;;;;;4.30;1.57;;;;;;;;;;5027293;28;20410;-57
2023/09/21 06:09:29;;;;;;;4.53;1.60;;;;;;;;;;5028920;28;20409;-57
2023/09/21 06:11:55;;;;;;;4.07;1.60;;;;;;;;;;5023338;28;20498;-57
2023/09/21 06:14:21;;;;;;;6.03;1.40;;;;;;;;;;5025028;28;20403;-57
2023/09/21 06:16:47;;;;;;;4.63;1.73;;;;;;;;;;5019576;28;20486;-57
2023/09/21 06:19:12;;;;;;;5.20;1.70;;;;;;;;;;5021262;28;21010;-57
2023/09/21 06:21:39;;;;;;;5.90;1.70;;;;;;;;;;5018904;28;20421;-57
2023/09/21 06:24:05;;;;;;;6.32;1.70;;;;;;;;;;5024397;28;20418;-57
2023/09/21 06:26:30;;;;;;;3.40;1.60;;;;;;;;;;5029217;28;20776;-57
2023/09/21 06:28:55;;;;;;;4.70;1.87;;;;;;;;;;5025257;28;20417;-57
2023/09/21 06:31:21;;;;;;;3.90;1.50;;;;;;;;;;5027240;28;20417;-57
2023/09/21 06:33:46;;;;;;;4.87;1.30;;;;;;;;;;5045632;28;20481;-57
2023/09/21 06:36:20;;;;;;;3.50;1.20;;;;;;;;;;5050366;28;20923;-57
2023/09/21 06:38:45;;;;;;;5.72;1.50;;;;;;;;;;5052544;28;20893;-57
2023/09/21 06:41:11;;;;;;;5.77;1.60;;;;;;;;;;5048640;28;20398;-57
2023/09/21 06:43:38;;;;;;;4.83;1.73;;;;;;;;;;5045199;28;20398;-57
2023/09/21 06:46:04;;;;;;;6.15;1.60;;;;;;;;;;5047463;28;20442;-57
2023/09/21 06:48:30;;;;;;;4.28;1.75;;;;;;;;;;5048359;28;20444;-57
2023/09/21 06:50:55;;;;;;;4.33;1.80;;;;;;;;;;5046105;28;20459;-57
2023/09/21 06:53:23;;;;;;;5.10;1.60;;;;;;;;;;5046220;28;20410;-57
2023/09/21 06:55:48;;;;;;;4.25;1.70;;;;;;;;;;5048662;28;20433;-57
2023/09/21 06:58:13;;;;;;;3.92;1.60;;;;;;;;;;5045594;28;20523;-57
2023/09/21 07:00:38;;;;;;;4.35;1.63;;;;;;;;;;5046264;28;20897;-57
2023/09/21 07:03:04;;;;;;;5.53;1.77;;;;;;;;;;5047530;28;20783;-57
2023/09/21 07:05:29;;;;;;;3.93;1.60;;;;;;;;;;5047856;28;20425;-57
2023/09/21 07:07:54;;;;;;;5.77;1.90;;;;;;;;;;5046078;28;20397;-57
2023/09/21 07:10:19;;;;;;;4.00;1.60;;;;;;;;;;5047608;28;20376;-57
2023/09/21 07:12:45;;;;;;;6.53;1.80;;;;;;;;;;5049610;28;20417;-57
2023/09/21 07:15:10;;;;;;;4.70;1.70;;;;;;;;;;5046284;28;20459;-57
2023/09/21 07:17:36;;;;;;;6.63;2.00;;;;;;;;;;5046855;28;20414;-58
2023/09/21 07:20:04;;;;;;;4.57;1.73;;;;;;;;;;5047275;28;20418;-58
2023/09/21 07:22:29;;;;;;;5.20;2.00;;;;;;;;;;5051160;28;20432;-58
2023/09/21 07:24:55;;;;;;;6.57;1.83;;;;;;;;;;5051493;28;20437;-58
2023/09/21 07:27:22;;;;;;;4.33;1.80;;;;;;;;;;5056839;28;20396;-58
2023/09/21 07:29:47;;;;;;;6.03;1.93;;;;;;;;;;5044445;28;20409;-58
2023/09/21 07:32:12;;;;;;;7.17;1.83;;;;;;;;;;5045390;28;20467;-58
2023/09/21 07:34:37;;;;;;;5.63;1.87;;;;;;;;;;5046619;28;20408;-58
2023/09/21 07:37:03;;;;;;;4.50;1.60;;;;;;;;;;5045424;28;20872;-58
2023/09/21 07:39:28;;;;;;;5.07;1.90;;;;;;;;;;5045771;28;20417;-58
2023/09/21 07:41:53;;;;;;;5.07;1.90;;;;;;;;;;5047151;28;20425;-58
2023/09/21 07:44:19;;;;;;;4.82;1.98;;;;;;;;;;5046045;28;20466;-58
2023/09/21 07:46:45;;;;;;;5.47;2.00;;;;;;;;;;5044452;28;20417;-58
2023/09/21 07:49:12;;;;;;;3.55;1.60;;;;;;;;;;5046433;28;20804;-58
2023/09/21 07:51:37;;;;;;;5.90;1.98;;;;;;;;;;5047424;28;20484;-57
2023/09/21 07:54:03;;;;;;;3.95;1.77;;;;;;;;;;5044050;28;20823;-58
2023/09/21 07:56:29;;;;;;;4.37;1.73;;;;;;;;;;5046633;28;20402;-58
2023/09/21 07:58:55;;;;;;;5.25;1.92;;;;;;;;;;5046642;28;20489;-58
2023/09/21 08:01:20;;;;;;;5.68;1.90;;;;;;;;;;5044364;28;20480;-58
2023/09/21 08:03:46;;;;;;;5.20;2.20;;;;;;;;;;5045270;28;20757;-58
2023/09/21 08:06:12;;;;;;;6.40;1.95;;;;;;;;;;5046387;28;20409;-58
2023/09/21 08:08:37;;;;;;;5.67;1.97;;;;;;;;;;5045891;28;20476;-58
2023/09/21 08:11:02;;;;;;;5.87;2.10;;;;;;;;;;5043843;28;20492;-58
2023/09/21 08:13:29;;;;;;;5.70;2.00;;;;;;;;;;5047041;28;20400;-58
2023/09/21 08:15:54;;;;;;;5.50;1.95;;;;;;;;;;5040554;28;20390;-57
2023/09/21 08:18:19;;;;;;;5.13;1.83;;;;;;;;;;5044765;28;20420;-58
2023/09/21 08:20:45;;;;;;;3.93;1.70;;;;;;;;;;5046151;28;20413;-58
2023/09/21 08:23:10;;;;;;;6.77;2.00;;;;;;;;;;5045416;28;20468;-58
2023/09/21 08:25:35;;;;;;;5.53;2.28;;;;;;;;;;5046066;28;20985;-58
2023/09/21 08:28:03;;;;;;;5.20;2.30;;;;;;;;;;5044515;28;20409;-58
2023/09/21 08:30:28;;;;;;;5.18;2.25;;;;;;;;;;5045774;28;21187;-58
2023/09/21 08:32:54;;;;;;;6.60;2.17;;;;;;;;;;5047117;28;20394;-57
2023/09/21 08:35:19;;;;;;;5.67;2.33;;;;;;;;;;5043603;28;20402;-58
2023/09/21 08:37:44;;;;;;;5.70;2.20;;;;;;;;;;5046649;28;20888;-58
2023/09/21 08:40:10;;;;;;;5.60;2.20;;;;;;;;;;5046584;28;20417;-58
2023/09/21 08:42:35;;;;;;;4.57;2.17;;;;;;;;;;5044807;28;20436;-58
2023/09/21 08:45:02;;;;;;;6.22;2.22;;;;;;;;;;5044750;28;20409;-58
2023/09/21 08:47:28;;;;;;;5.30;2.17;;;;;;;;;;5046733;28;20489;-58
2023/09/21 08:49:53;;;;;;;5.63;2.57;;;;;;;;;;5044351;28;21280;-58
2023/09/21 08:52:19;;;;;;;6.13;2.30;;;;;;;;;;5042817;28;20416;-58
2023/09/21 08:54:46;;;;;;;5.55;2.10;;;;;;;;;;5046759;28;20896;-58
2023/09/21 08:57:12;;;;;;;7.07;2.70;;;;;;;;;;5044192;28;20489;-58
2023/09/21 08:59:39;;;;;;;7.40;2.50;;;;;;;;;;5044445;28;20432;-58
2023/09/21 09:02:04;;;;;;;6.45;2.33;;;;;;;;;;5045541;28;21026;-57
2023/09/21 09:04:30;;;;;;;4.80;2.40;;;;;;;;;;5045508;28;20433;-57
2023/09/21 09:06:55;;;;;;;5.83;2.30;;;;;;;;;;5044502;28;20405;-57
2023/09/21 09:09:22;;;;;;;4.83;2.30;;;;;;;;;;5044534;28;20390;-58
2023/09/21 09:11:47;;;;;;;5.03;2.47;;;;;;;;;;5048379;28;20409;-57
2023/09/21 09:14:13;;;;;;;6.03;2.50;;;;;;;;;;5049920;28;20431;-58
2023/09/21 09:16:39;;;;;;;6.00;2.30;;;;;;;;;;5048024;28;20884;-57
2023/09/21 09:19:05;;;;;;;4.87;2.10;;;;;;;;;;5049143;28;20423;-57
2023/09/21 09:21:30;;;;;;;5.53;2.40;;;;;;;;;;5050118;28;20405;-58
2023/09/21 09:23:56;;;;;;;4.82;2.28;;;;;;;;;;5048949;28;20811;-57
2023/09/21 09:26:21;;;;;;;6.45;2.40;;;;;;;;;;5047837;28;20401;-57
2023/09/21 09:28:46;;;;;;;4.68;2.40;;;;;;;;;;5048776;28;20904;-57
2023/09/21 09:31:12;;;;;;;5.93;2.30;;;;;;;;;;5049195;28;20405;-57
2023/09/21 09:33:38;;;;;;;5.00;2.40;;;;;;;;;;5047443;28;20413;-57
2023/09/21 09:36:04;;;;;;;5.20;2.25;;;;;;;;;;5049061;28;20795;-58
2023/09/21 09:38:31;;;;;;;5.45;2.35;;;;;;;;;;5049366;28;20401;-57
2023/09/21 09:40:56;;;;;;;5.70;2.20;;;;;;;;;;5047612;28;20459;-57
2023/09/21 09:43:21;;;;;;;4.93;2.27;;;;;;;;;;5047498;28;20397;-57
2023/09/21 09:45:47;;;;;;;4.67;2.30;;;;;;;;;;5047883;28;20789;-57
2023/09/21 09:48:12;;;;;;;4.90;2.30;;;;;;;;;;5046090;28;20457;-58
2023/09/21 09:50:41;;;;;;;3.87;2.40;;;;;;;;;;5046236;28;20409;-57
2023/09/21 09:53:07;;;;;;;4.95;2.28;;;;;;;;;;5047970;28;20441;-58
2023/09/21 09:55:33;;;;;;;5.47;2.40;;;;;;;;;;5049358;28;20912;-57
2023/09/21 09:57:59;;;;;;;5.13;2.45;;;;;;;;;;5047024;28;20425;-58
2023/09/21 10:00:27;;;;;;;6.00;2.63;;;;;;;;;;5046899;28;20433;-57
2023/09/21 10:02:53;;;;;;;5.37;2.60;;;;;;;;;;5048571;28;20463;-58
2023/09/21 10:05:19;;;;;;;7.28;2.70;;;;;;;;;;5047659;28;20894;-57
2023/09/21 10:07:46;;;;;;;5.53;2.80;;;;;;;;;;5047980;28;21324;-57
2023/09/21 10:10:15;;;;;;;4.90;2.63;;;;;;;;;;5048587;28;20397;-57
2023/09/21 10:12:41;;;;;;;6.43;2.83;;;;;;;;;;5048847;28;20424;-57
2023/09/21 10:15:07;;;;;;;7.97;3.00;;;;;;;;;;5045956;28;20498;-57
2023/09/21 10:17:32;;;;;;;5.45;2.60;;;;;;;;;;5049479;28;20401;-57
2023/09/21 10:20:25;;;;;;;5.85;3.40;;;;;;;;;;5047806;28;20922;-57
2023/09/21 10:22:51;;;;;;;6.05;2.80;;;;;;;;;;5046486;28;20408;-57
2023/09/21 10:25:20;;;;;;;4.55;2.83;;;;;;;;;;5051795;28;20896;-57
2023/09/21 10:27:49;;;;;;;5.93;3.15;;;;;;;;;;5050177;28;20539;-57
2023/09/21 10:30:15;;;;;;;5.97;3.23;;;;;;;;;;5051033;28;20409;-57
2023/09/21 10:32:42;;;;;;;6.10;3.05;;;;;;;;;;5050565;28;20390;-57
2023/09/21 10:35:09;;;;;;;6.13;3.10;;;;;;;;;;5050616;28;20474;-57
2023/09/21 10:37:35;;;;;;;6.60;3.40;;;;;;;;;;5051529;28;20813;-57
2023/09/21 10:40:02;;;;;;;6.80;3.90;;;;;;;;;;5051476;28;20908;-58
2023/09/21 10:42:29;;;;;;;5.45;3.40;;;;;;;;;;5049388;28;20408;-57
2023/09/21 10:44:58;;;;;;;6.72;3.38;;;;;;;;;;5051178;28;20852;-57
2023/09/21 10:47:28;;;;;;;6.18;3.08;;;;;;;;;;5051369;28;20409;-57
2023/09/21 10:49:53;;;;;;;5.95;3.22;;;;;;;;;;5050642;28;20439;-57
2023/09/21 10:52:19;;;;;;;7.45;3.70;;;;;;;;;;5051018;28;20816;-57
2023/09/21 10:54:44;;;;;;;5.93;3.10;;;;;;;;;;5051432;28;20436;-57
2023/09/21 10:57:12;;;;;;;6.03;3.15;;;;;;;;;;5050379;28;20879;-57
2023/09/21 10:59:37;;;;;;;6.15;3.05;;;;;;;;;;5051028;28;20420;-57
2023/09/21 11:02:02;;;;;;;6.50;3.00;;;;;;;;;;5050907;28;20409;-57
2023/09/21 11:04:28;;;;;;;5.30;2.63;;;;;;;;;;5050429;28;20878;-57
2023/09/21 11:06:53;;;;;;;4.27;2.80;;;;;;;;;;5051221;28;20405;-57
2023/09/21 11:09:19;;;;;;;4.30;2.80;;;;;;;;;;5050678;28;20393;-57
2023/09/21 11:11:45;;;;;;;4.78;2.75;;;;;;;;;;5050614;28;20398;-57
2023/09/21 11:14:10;;;;;;;4.63;2.70;;;;;;;;;;5050397;28;20405;-57
2023/09/21 11:16:35;;;;;;;4.60;2.67;;;;;;;;;;5051173;28;20402;-57
2023/09/21 11:19:01;;;;;;;5.33;2.77;;;;;;;;;;5048505;28;20488;-57
2023/09/21 11:21:26;;;;;;;4.40;2.90;;;;;;;;;;5047400;28;20464;-57
2023/09/21 11:23:53;;;;;;;6.60;2.83;;;;;;;;;;5045263;28;20925;-57
2023/09/21 11:26:19;;;;;;;4.85;2.67;;;;;;;;;;5046778;28;20946;-57
2023/09/21 11:28:44;;;;;;;5.38;2.92;;;;;;;;;;5047511;28;20401;-57
2023/09/21 11:31:11;;;;;;;4.70;2.57;;;;;;;;;;5044410;28;20937;-58
2023/09/21 11:33:37;;;;;;;5.40;3.30;;;;;;;;;;5047580;28;20409;-57
2023/09/21 11:36:04;;;;;;;5.93;3.17;;;;;;;;;;5047536;28;20405;-57
2023/09/21 11:38:33;;;;;;;6.15;3.10;;;;;;;;;;5045612;28;20485;-57
2023/09/21 11:40:58;;;;;;;6.97;3.33;;;;;;;;;;5046583;28;20402;-57
2023/09/21 11:43:25;;;;;;;5.47;3.10;;;;;;;;;;5046910;28;20405;-57
2023/09/21 11:45:51;;;;;;;6.97;3.40;;;;;;;;;;5046636;28;20405;-57
2023/09/21 11:48:17;;;;;;;6.50;3.30;;;;;;;;;;5045098;28;20772;-57
2023/09/21 11:50:43;;;;;;;6.95;3.28;;;;;;;;;;5047657;28;20498;-57
2023/09/21 11:53:08;;;;;;;6.35;3.28;;;;;;;;;;5046088;28;20451;-57
2023/09/21 11:55:33;;;;;;;4.97;3.50;;;;;;;;;;5045297;28;20397;-57
2023/09/21 11:58:06;;;;;;;6.83;3.70;;;;;;;;;;5046895;28;20483;-57
2023/09/21 12:00:44;;;;;;;6.68;3.70;;;;;;;;;;5045920;28;20401;-57
2023/09/21 12:03:12;;;;;;;5.43;3.55;;;;;;;;;;5046746;28;20443;-57
2023/09/21 12:05:40;;;;;;;6.90;3.30;;;;;;;;;;5044260;28;21470;-57
2023/09/21 12:08:05;;;;;;;6.28;3.50;;;;;;;;;;5046056;28;20492;-57
2023/09/21 12:10:31;;;;;;;4.75;2.70;;;;;;;;;;5047358;28;20825;-57
2023/09/21 12:12:57;;;;;;;3.90;2.47;;;;;;;;;;5043727;28;20401;-57
2023/09/21 12:15:22;;;;;;;4.10;2.50;;;;;;;;;;5045081;28;20404;-57
2023/09/21 12:17:48;;;;;;;5.40;2.63;;;;;;;;;;5046758;28;20401;-57
2023/09/21 12:20:18;;;;;;;5.65;2.88;;;;;;;;;;5045258;28;20416;-57
2023/09/21 12:22:44;;;;;;;5.97;2.40;;;;;;;;;;5045061;28;20413;-58
2023/09/21 12:25:09;;;;;;;4.70;2.47;;;;;;;;;;5046531;28;20413;-57
2023/09/21 12:27:35;;;;;;;5.43;2.40;;;;;;;;;;5046493;28;20405;-57
2023/09/21 12:30:00;;;;;;;5.43;2.15;;;;;;;;;;5044176;28;20827;-60
2023/09/21 12:32:28;;;;;;;3.87;1.90;;;;;;;;;;5046932;28;20427;-57
2023/09/21 12:34:54;;;;;;;2.95;1.65;;;;;;;;;;5046021;28;20848;-57
2023/09/21 12:37:19;;;;;;;3.00;1.70;;;;;;;;;;5045180;28;20779;-57
2023/09/21 12:39:44;;;;;;;3.53;1.73;;;;;;;;;;5045580;28;20459;-57
2023/09/21 12:42:11;;;;;;;2.70;1.60;;;;;;;;;;5045604;28;20413;-57
2023/09/21 12:44:36;;;;;;;3.22;1.52;;;;;;;;;;5045294;28;20467;-57
2023/09/21 12:47:02;;;;;;;2.13;1.50;;;;;;;;;;5047257;28;20397;-57
2023/09/21 12:49:27;;;;;;;3.40;1.90;;;;;;;;;;5050636;28;20404;-57
2023/09/21 12:51:52;;;;;;;4.70;1.50;;;;;;;;;;5050996;28;20458;-57
2023/09/21 12:54:19;;;;;;;2.40;0.90;;;;;;;;;;5048528;28;20459;-58
2023/09/21 12:56:44;;;;;;;2.58;1.05;;;;;;;;;;5048977;28;20874;-58
2023/09/21 12:59:10;;;;;;;1.97;0.77;;;;;;;;;;5050283;28;20484;-57
2023/09/21 13:01:35;;;;;;;1.50;0.70;;;;;;;;;;5049988;28;20831;-58
2023/09/21 13:04:00;;;;;;;2.90;0.90;;;;;;;;;;5047972;28;20907;-58
2023/09/21 13:06:26;;;;;;;1.50;0.70;;;;;;;;;;5050400;28;20957;-57
2023/09/21 13:08:51;;;;;;;3.17;0.90;;;;;;;;;;5050861;28;20780;-58
2023/09/21 13:11:17;;;;;;;3.50;1.00;;;;;;;;;;5046702;28;20405;-58
2023/09/21 13:13:42;;;;;;;6.25;1.60;;;;;;;;;;5049282;28;20437;-59
2023/09/21 13:16:08;;;;;;;5.30;1.30;;;;;;;;;;5050047;28;20737;-59
2023/09/21 13:18:35;;;;;;;3.77;1.00;;;;;;;;;;5044041;28;20907;-58
2023/09/21 13:21:01;;;;;;;5.05;1.25;;;;;;;;;;5048749;28;21013;-61
2023/09/21 13:23:27;;;;;;;2.85;0.90;;;;;;;;;;5049702;28;20513;-58
2023/09/21 13:25:52;;;;;;;2.45;0.80;;;;;;;;;;5048875;28;20385;-58
2023/09/21 13:28:19;;;;;;;3.20;0.93;;;;;;;;;;5047832;28;20487;-58
2023/09/21 13:30:47;;;;;;;2.30;0.80;;;;;;;;;;5048333;28;20470;-58
2023/09/21 13:33:13;;;;;;;3.90;0.90;;;;;;;;;;5037844;28;20436;-58
2023/09/21 13:35:38;;;;;;;4.93;1.30;;;;;;;;;;5024053;28;20418;-59
2023/09/21 13:38:04;;;;;;;3.23;0.80;;;;;;;;;;5023948;28;20399;-59
2023/09/21 13:40:29;;;;;;;2.33;0.90;;;;;;;;;;5027768;28;20523;-58
2023/09/21 13:42:55;;;;;;;3.33;0.90;;;;;;;;;;5032251;28;20909;-58
2023/09/21 13:45:20;;;;;;;3.07;0.97;;;;;;;;;;5036238;28;20397;-58
2023/09/21 13:47:45;;;;;;;3.37;1.00;;;;;;;;;;5031013;28;20413;-57
2023/09/21 13:50:11;;;;;;;2.95;0.95;;;;;;;;;;5036998;28;20484;-58
2023/09/21 13:52:36;;;;;;;2.28;0.90;;;;;;;;;;5033001;28;20434;-58
2023/09/21 13:55:01;;;;;;;3.35;1.20;;;;;;;;;;5029912;28;20498;-58
2023/09/21 13:57:29;;;;;;;3.07;1.10;;;;;;;;;;5018660;28;21162;-57
2023/09/21 13:59:55;;;;;;;3.30;1.00;;;;;;;;;;5033216;28;20617;-58
2023/09/21 14:02:20;;;;;;;2.80;1.05;;;;;;;;;;5020150;28;20422;-58
2023/09/21 14:04:45;;;;;;;1.70;0.90;;;;;;;;;;5026712;28;20750;-57
2023/09/21 14:07:10;;;;;;;2.23;1.00;;;;;;;;;;5032012;28;20416;-57
2023/09/21 14:09:36;;;;;;;2.93;1.20;;;;;;;;;;5045551;28;20443;-57
2023/09/21 14:12:02;;;;;;;2.57;1.23;;;;;;;;;;5040158;28;20417;-57
2023/09/21 14:14:27;;;;;;;2.80;1.13;;;;;;;;;;5044962;28;20396;-58
2023/09/21 14:16:53;;;;;;;2.60;1.03;;;;;;;;;;5045572;28;20405;-57
2023/09/21 14:19:18;;;;;;;2.73;1.20;;;;;;;;;;5037408;28;20398;-57
2023/09/21 14:21:43;;;;;;;2.97;1.10;;;;;;;;;;5036878;28;20918;-57
2023/09/21 14:24:09;;;;;;;3.77;1.00;;;;;;;;;;5038520;28;20409;-58
2023/09/21 14:26:34;;;;;;;2.40;1.10;;;;;;;;;;5043207;28;20393;-58
2023/09/21 14:28:59;;;;;;;2.40;1.00;;;;;;;;;;5043942;28;20393;-57
2023/09/21 14:31:25;;;;;;;2.50;1.00;;;;;;;;;;5024925;28;20387;-58
2023/09/21 14:33:50;;;;;;;2.37;1.03;;;;;;;;;;5026127;28;20414;-57
2023/09/21 14:36:15;;;;;;;2.73;1.10;;;;;;;;;;5025693;28;20789;-58